x

South Huron - 43nm East Of Oscoda, Mi (45008) Wave Buoy

9:50pm - Sat 30th Jul 2016 All times are CDT. -5 hours from GMT.

  • Sig Wave height 1.6ft
  • Swell Direction
  • Peak Period 4s
  • Average Period 3s
  • Wind
    16mph, 18mph gusts
  • Sea Temp 69°f
  • Air Temp 70°f
  • Sea Pressure 1015.8mb
  • South Huron - 43nm East Of Oscoda, Mi
  • South Huron - 43nm East Of Oscoda, Mi

More Historic Weather Station data

Upgrade to MSW Pro to gain access to the past 30 days of data for over 8000 Wavebouys and Weather Stations around the globe.

Join Pro

Comparision Forecast

View Surf forecast
   
Sat 07/30 9:50pm 1.6ft 4s 3s 16 18 mph 1015.8mb 69f 70f
8:50pm 2ft 4s 4s 13 16 mph 1015.7mb 69f 70f
7:50pm 2ft 4s 4s 13 16 mph 1015.5mb 69f 70f
6:50pm 2ft 4s 4s 16 18 mph 1015.3mb 69f 70f
5:50pm 2.5ft 4s 3s 16 18 mph 1015.5mb 69f 70f
4:50pm 2ft 4s 3s 18 20 mph 1015.4mb 69f 69f
3:50pm 2ft 4s 3s 16 18 mph 1015.7mb 69f 70f
2:50pm 2ft 4s 3s 16 18 mph 1016.1mb 69f 69f
1:50pm 2.5ft 4s 4s 13 16 mph 1016.5mb 69f 69f
12:50pm 2.5ft 5s 4s 16 18 mph 1016.8mb 69f 68f
11:50am 2ft 4s 4s 16 18 mph 1016.8mb 69f 68f
10:50am 2.5ft 4s 4s 16 18 mph 1017.2mb 69f 67f
9:50am 2.5ft 4s 4s 16 18 mph 1016.9mb 69f 67f
8:50am 2.5ft 4s 4s 16 18 mph 1017mb 69f 67f
7:50am 2.5ft 4s 3s 16 20 mph 1016.4mb 69f 67f
6:50am 2.5ft 4s 4s 16 18 mph 1016.5mb 69f 67f
5:50am 2ft 4s 3s 18 22 mph 1015.8mb 69f 68f
4:50am 2.5ft 4s 4s 16 18 mph 1015.7mb 69f 68f
3:50am 2.5ft 4s 4s 16 18 mph 1015.6mb 69f 68f
2:50am 2.5ft 4s 4s 16 20 mph 1015.4mb 69f 69f
1:50am 2.5ft 4s 3s 16 20 mph 1015.6mb 69f 69f
12:50am 2ft 4s 3s 16 20 mph 1016mb 70f 69f
Fri 07/29 11:50pm 1.6ft 4s 3s 16 18 mph 1015.9mb 70f 69f
10:50pm 1.6ft 4s 3s 13 18 mph 1016mb 70f 69f
9:50pm 2ft 4s 3s 16 18 mph 1016.1mb 70f 70f
8:50pm 2ft 4s 4s 16 18 mph 1016mb 69f 70f
7:50pm 2.5ft 4s 4s 13 16 mph 1015.8mb 69f 69f
6:50pm 2.5ft 4s 4s 18 20 mph 1015.3mb 69f 69f
5:50pm 3ft 4s 4s 16 18 mph 1015.4mb 69f 69f
4:50pm 2.5ft 5s 4s 18 20 mph 1015.5mb 69f 68f
3:50pm 2.5ft 5s 4s 18 20 mph 1015.6mb 69f 68f
2:50pm 2.5ft 4s 4s 18 20 mph 1015.9mb 69f 69f
1:50pm 2.5ft 5s 4s 18 20 mph 1016.3mb 69f 68f
12:50pm 2.5ft 5s 4s 16 20 mph 1016.2mb 69f 68f
11:50am 2.5ft 5s 4s 18 20 mph 1016mb 69f 67f
10:50am 2.5ft 5s 4s 18 20 mph 1015.8mb 69f 67f
9:50am 3ft 5s 4s 16 20 mph 1015.6mb 69f 68f
8:50am 3.5ft 5s 4s 18 22 mph 1015.4mb 69f 68f
7:50am 3.5ft 5s 4s 18 20 mph 1015.4mb 69f 68f
6:50am 3.5ft 5s 4s 18 20 mph 1015mb 69f 68f
5:50am 3.5ft 5s 4s 20 22 mph 1014.4mb 69f 68f
4:50am 3.5ft 5s 4s 22 25 mph 1013.9mb 69f 69f
3:50am 2.5ft 4s 4s 20 22 mph 1013.8mb 69f 69f
2:50am 2ft 4s 3s 18 22 mph 1014mb 69f 69f
1:50am 1.6ft 3s 3s 20 25 mph 1013.4mb 69f 70f
12:50am 1.3ft 3s 3s 16 20 mph 1013.7mb 69f 70f
Thu 07/28 11:50pm 1.3ft 4s 3s 11 13 mph 1013.7mb 69f 70f
10:50pm 1.3ft 4s 3s 13 16 mph 1013.3mb 69f 70f
9:50pm 1.3ft 4s 3s 13 16 mph 1013.2mb 69f 70f
8:50pm 1.3ft 4s 3s 13 16 mph 1013.4mb 69f 70f
7:50pm 1ft 3s 3s 13 16 mph 1013.2mb 70f 70f
5:50pm 1.3ft 4s 3s 11 13 mph 1012.9mb 69f 70f
4:50pm 1.3ft 3s 3s 11 13 mph 1012.8mb 69f 69f
3:50pm 1.3ft 5s 3s 11 13 mph 1012.7mb 69f 69f
2:50pm 1.6ft 5s 4s 11
mph
1012.8mb 69f 69f
12:50pm 1.6ft 4s 4s 9
mph
1013.2mb 69f 69f
11:50am 2ft 4s 4s 11
mph
1013.1mb 69f 69f
10:50am 2ft 4s 4s 13 16 mph 1013.4mb 69f 69f
9:50am 1.6ft 4s 3s 13 16 mph 1013.4mb 69f 69f
8:50am 1.6ft 4s 3s 13 16 mph 1013.6mb 69f 69f
7:50am 1.3ft 3s 3s 13 16 mph 1013.6mb 69f 69f
6:50am 1.3ft 3s 3s 13 16 mph 1013.2mb 69f 70f
5:50am 0.7ft  -  2s 13 18 mph 1013.1mb 69f 70f
4:50am 0.3ft  -  3s 9
mph
1012.6mb 70f 71f
3:50am 0.3ft  -  3s 7 9 mph 1012.4mb 70f 71f
2:50am 0.3ft  -  3s 7 9 mph 1012.3mb 70f 71f
1:50am 0.3ft  -  3s 7
mph
1012.7mb 70f 70f
12:50am 0.3ft  -  3s 4
mph
1013mb 70f 70f
Wed 07/27 11:50pm 0.7ft  -  3s 4 7 mph 1013.3mb 70f 71f
10:50pm 0.7ft  -  3s 4
mph
1013.1mb 70f 71f
9:50pm 0.7ft  -  3s 2
mph
1012.7mb 70f 71f
8:50pm 0.7ft  -  3s 4
mph
1012.3mb 70f 71f
7:50pm 0.3ft  -  3s 7
mph
1012.5mb 71f 71f
6:50pm 0.3ft  -  3s 2 4 mph 1013.1mb 71f 72f
5:50pm 0.3ft  -  3s 11 13 mph 1013.6mb 71f 71f
4:50pm 0.7ft  -  3s 2
mph
1013mb 71f 71f
3:50pm 0.7ft  -  3s 4 7 mph 1012.7mb 71f 72f
2:50pm 1ft 4s 3s 4
mph
1013.1mb 72f 72f
1:50pm 1ft 4s 3s 2 4 mph 1013.6mb 71f 72f
12:50pm 1ft 4s 3s 4 7 mph 1013.8mb 70f 71f
11:50am 1ft 3s 3s 4 7 mph 1013.6mb 69f 71f
10:50am 1ft 3s 3s 7
mph
1013.5mb 69f 71f
9:50am 1ft 3s 3s 7 9 mph 1013.3mb 69f 71f
8:50am 1ft 3s 3s 11 13 mph 1013.5mb 68f 71f
7:50am 0.7ft  -  3s 11 13 mph 1013.5mb 68f 71f
6:50am 0.7ft  -  3s 11
mph
1013.3mb 68f 71f
5:50am 0.7ft  -  3s 9 11 mph 1013.2mb 68f 71f
4:50am 0.7ft  -  3s 9
mph
1013mb 68f 71f
3:50am 1ft 3s 3s 9
mph
1012.5mb 68f 71f